createdAt,value
2022-12-08T02:54:51.725Z,19.63
2022-12-08T02:58:11.036Z,17.90
2022-12-08T03:01:15.976Z,17.60
2022-12-08T03:04:41.362Z,20.58
2022-12-08T03:08:00.640Z,19.00
2022-12-08T03:11:21.740Z,19.08
2022-12-08T03:14:24.955Z,18.50
2022-12-08T03:17:29.699Z,19.90
2022-12-08T03:20:34.630Z,18.40
2022-12-08T03:23:38.252Z,16.48
2022-12-08T03:26:50.560Z,17.05
2022-12-08T03:29:55.203Z,16.33
2022-12-08T03:33:31.578Z,16.30
2022-12-08T03:36:33.806Z,14.93
2022-12-08T03:39:35.688Z,16.65
2022-12-08T03:42:37.632Z,15.02
2022-12-08T03:45:39.537Z,17.30
2022-12-08T03:48:41.455Z,17.67
2022-12-08T03:51:43.624Z,18.30
2022-12-08T03:54:45.584Z,17.00
2022-12-08T03:57:47.518Z,16.42
2022-12-08T04:00:49.859Z,16.85
2022-12-08T04:03:52.203Z,15.40
2022-12-08T04:06:54.076Z,14.45
2022-12-08T04:09:55.908Z,15.32
2022-12-08T04:12:57.967Z,17.55
2022-12-08T04:15:59.995Z,17.30
2022-12-08T04:19:01.898Z,16.20
2022-12-08T04:22:03.909Z,18.15
2022-12-08T04:25:06.348Z,21.13
2022-12-08T04:28:08.419Z,19.02
2022-12-08T04:31:11.010Z,20.40
2022-12-08T04:34:12.927Z,21.83
2022-12-08T04:37:14.781Z,20.58
2022-12-08T04:40:16.796Z,18.17
2022-12-08T04:43:19.007Z,17.42
2022-12-08T04:46:20.926Z,16.98
2022-12-08T04:49:22.775Z,15.20
2022-12-08T04:52:24.644Z,15.85
2022-12-08T06:01:26.215Z,22.13
2022-12-08T06:04:28.311Z,19.40
2022-12-08T06:07:30.204Z,19.53
2022-12-08T06:10:32.111Z,23.83
2022-12-08T06:13:34.289Z,24.00
2022-12-08T06:16:36.444Z,19.15
2022-12-08T06:19:38.566Z,19.20
2022-12-08T06:22:40.356Z,21.10
2022-12-08T06:25:42.192Z,19.60
2022-12-08T06:28:44.654Z,20.58
2022-12-08T06:31:46.620Z,18.75
2022-12-08T06:34:48.712Z,29.65
2022-12-08T06:37:51.771Z,19.23
2022-12-08T06:40:58.029Z,16.38
2022-12-08T06:43:59.939Z,15.35
2022-12-08T06:47:01.799Z,22.73
2022-12-08T06:50:04.893Z,23.50
2022-12-08T06:53:07.170Z,22.47
2022-12-08T06:56:10.146Z,18.15
2022-12-08T06:59:12.142Z,25.20
2022-12-08T07:02:14.177Z,25.17
2022-12-08T07:05:16.157Z,27.00
2022-12-08T07:08:18.353Z,21.43
2022-12-08T07:11:22.377Z,21.48
2022-12-08T07:14:25.073Z,15.68
2022-12-08T07:17:27.082Z,20.02
2022-12-08T07:20:29.268Z,25.30
2022-12-08T07:23:31.268Z,24.77
2022-12-08T07:26:33.159Z,22.52
2022-12-08T07:29:35.266Z,20.65
2022-12-08T07:32:38.426Z,20.80
2022-12-08T07:35:43.827Z,19.67
2022-12-08T07:38:48.970Z,24.13
2022-12-08T07:41:50.864Z,27.90
2022-12-08T07:44:52.962Z,22.20
2022-12-08T07:47:54.856Z,21.48
2022-12-08T07:51:02.384Z,20.98
2022-12-08T07:54:04.517Z,30.60
2022-12-08T07:57:06.632Z,22.88
2022-12-08T08:00:10.649Z,19.42
2022-12-08T09:14:35.344Z,21.23
2022-12-08T09:17:38.246Z,30.08
2022-12-08T09:20:40.235Z,27.48
2022-12-08T09:23:43.203Z,29.58
2022-12-08T09:26:45.177Z,28.30
2022-12-08T09:29:50.920Z,26.50
2022-12-08T09:32:53.149Z,25.45
2022-12-08T09:35:55.131Z,26.58
2022-12-08T09:38:57.339Z,28.23
2022-12-08T09:42:05.173Z,28.65
2022-12-08T09:45:12.888Z,23.13
2022-12-08T09:48:23.015Z,26.70
2022-12-08T09:51:27.809Z,29.40
2022-12-08T09:54:34.629Z,29.50
2022-12-08T09:57:37.183Z,30.98
2022-12-08T10:00:40.061Z,24.90
2022-12-08T10:03:42.881Z,28.50
2022-12-08T10:07:12.957Z,37.33
2022-12-08T10:10:27.533Z,25.75
2022-12-08T10:13:44.321Z,30.25
2022-12-08T10:16:49.701Z,24.13
2022-12-08T10:19:59.976Z,29.17
2022-12-08T10:23:15.818Z,29.42
2022-12-08T10:26:20.387Z,40.38
2022-12-08T10:29:22.435Z,23.02
2022-12-08T10:32:24.742Z,22.23
2022-12-08T10:35:52.952Z,24.00
2022-12-08T10:38:54.860Z,24.88
2022-12-08T10:42:07.578Z,22.55
2022-12-08T10:45:09.441Z,18.23
2022-12-08T10:48:31.318Z,24.97
2022-12-08T10:51:33.338Z,21.92
2022-12-08T10:54:38.403Z,21.55
2022-12-08T10:57:40.230Z,20.38
2022-12-08T11:00:42.196Z,28.60
2022-12-08T11:03:54.180Z,21.40
2022-12-08T11:06:56.184Z,25.08
2022-12-08T11:09:59.127Z,22.75
2022-12-08T11:54:09.071Z,13.77
2022-12-08T11:57:16.625Z,18.17
2022-12-08T12:00:19.184Z,21.13
2022-12-08T12:03:29.999Z,21.70
2022-12-08T12:06:54.783Z,18.80
2022-12-08T12:09:56.820Z,17.47
2022-12-08T12:13:16.819Z,16.65
2022-12-08T12:16:40.872Z,16.00
2022-12-08T12:19:43.937Z,18.88
2022-12-08T12:22:50.876Z,19.83
2022-12-08T12:26:00.038Z,21.27
2022-12-08T12:29:13.328Z,20.38
2022-12-08T12:32:15.367Z,19.17
2022-12-08T12:35:32.244Z,22.10
2022-12-08T12:38:59.110Z,16.75
2022-12-08T12:42:05.003Z,16.40
2022-12-08T12:45:16.205Z,21.70
2022-12-08T12:48:24.709Z,20.25
2022-12-08T12:51:45.613Z,15.20
2022-12-08T12:54:50.345Z,17.75
2022-12-08T12:57:57.733Z,18.07
2022-12-08T13:01:11.983Z,17.60
2022-12-08T13:04:14.511Z,19.45
2022-12-08T13:07:26.740Z,17.17
2022-12-08T13:10:33.240Z,17.35
2022-12-08T13:13:36.105Z,18.00
2022-12-08T13:16:39.601Z,20.35
2022-12-08T13:19:45.372Z,19.30
2022-12-08T13:23:12.560Z,21.38
2022-12-08T13:26:24.671Z,20.92
2022-12-08T13:29:26.843Z,20.67
2022-12-08T13:32:29.336Z,22.20
2022-12-08T13:35:42.107Z,22.05
2022-12-08T13:38:48.177Z,20.35
2022-12-08T13:42:05.771Z,18.05
2022-12-08T13:59:35.511Z,20.17
2022-12-08T14:02:47.105Z,22.33
2022-12-08T14:06:11.814Z,29.48
2022-12-08T14:09:16.334Z,28.00
2022-12-08T14:12:24.786Z,29.80
2022-12-08T14:15:30.214Z,27.23
2022-12-08T14:18:36.179Z,34.10
2022-12-08T14:21:38.177Z,24.80
2022-12-08T14:24:44.284Z,28.95
2022-12-08T14:27:47.874Z,28.45
2022-12-08T14:30:50.718Z,31.48
2022-12-08T14:33:56.515Z,29.13
2022-12-08T14:36:59.076Z,32.15
2022-12-08T14:40:10.479Z,31.52
2022-12-08T14:43:15.203Z,25.05
2022-12-08T14:46:22.430Z,24.73
2022-12-08T14:49:36.324Z,25.00
2022-12-08T14:52:43.908Z,22.70
2022-12-08T14:55:47.972Z,18.17
2022-12-08T14:59:03.163Z,17.35
2022-12-08T15:02:21.710Z,18.85
2022-12-08T15:05:33.039Z,19.87
2022-12-08T15:08:50.148Z,20.40
2022-12-08T15:12:26.144Z,17.48
2022-12-08T15:15:30.681Z,24.75
2022-12-08T15:18:38.779Z,26.80
2022-12-08T15:21:40.660Z,28.40
2022-12-08T15:24:42.517Z,31.05
2022-12-08T15:27:50.590Z,33.30
2022-12-08T15:30:53.133Z,31.90
2022-12-08T15:33:55.052Z,27.42
2022-12-08T15:36:56.980Z,18.67
2022-12-08T15:39:59.011Z,30.02
2022-12-08T15:43:00.814Z,28.67
2022-12-08T15:46:04.934Z,32.63
2022-12-08T15:49:06.828Z,28.40
2022-12-08T15:52:23.716Z,23.37
